Time;durP1;ratioP1;P1;durP2;ratioP2;P2;SDS_P1;SDS_P2;PMS_P1;PMS_P2;Temp;Humidity;BMP_temperature;BMP_pressure;BME280_temperature;BME280_humidity;BME280_pressure;Samples;Min_cycle;Max_cycle;Signal;HPM_P1;HPM_P2
2022/06/15 00:02:08;;;;;;;6.00;4.18;;;14.60;99.90;;;;;;5081301;27;20093;-37
2022/06/15 00:04:34;;;;;;;6.90;3.85;;;14.60;99.90;;;;;;5079925;28;20031;-39
2022/06/15 00:07:00;;;;;;;6.82;4.22;;;14.60;99.90;;;;;;5078653;28;20024;-37
2022/06/15 00:09:26;;;;;;;5.45;4.50;;;14.50;99.90;;;;;;5083345;28;20031;-39
2022/06/15 00:11:51;;;;;;;7.95;3.88;;;14.60;99.90;;;;;;5079910;28;20127;-38
2022/06/15 00:14:21;;;;;;;7.40;4.03;;;14.50;99.90;;;;;;5071932;28;20420;-36
2022/06/15 00:16:47;;;;;;;4.45;3.97;;;14.50;99.90;;;;;;5068044;28;20165;-39
2022/06/15 00:19:13;;;;;;;6.28;3.92;;;14.40;99.90;;;;;;5073341;28;20248;-38
2022/06/15 00:21:39;;;;;;;4.40;3.88;;;14.40;99.90;;;;;;5068225;28;20041;-36
2022/06/15 00:24:05;;;;;;;4.95;4.43;;;14.30;99.90;;;;;;5077433;28;20027;-39
2022/06/15 00:26:31;;;;;;;4.47;3.55;;;14.30;99.90;;;;;;5070198;28;20111;-39
2022/06/15 00:28:57;;;;;;;5.63;4.40;;;14.20;99.90;;;;;;5073572;28;20042;-36
2022/06/15 00:31:22;;;;;;;4.55;4.10;;;14.20;99.90;;;;;;5077566;28;20036;-37
2022/06/15 00:33:49;;;;;;;7.28;4.13;;;14.20;99.90;;;;;;5078967;28;20040;-38
2022/06/15 00:36:19;;;;;;;6.40;4.13;;;14.30;99.90;;;;;;5066435;28;20115;-39
2022/06/15 00:38:47;;;;;;;5.38;4.05;;;14.30;99.90;;;;;;5072812;28;20036;-39
2022/06/15 00:41:21;;;;;;;5.63;3.53;;;14.20;99.90;;;;;;5077992;28;20028;-38
2022/06/15 00:44:02;;;;;;;5.03;3.45;;;14.20;99.90;;;;;;5071805;28;20024;-37
2022/06/15 00:46:34;;;;;;;5.13;3.17;;;14.20;99.90;;;;;;5076443;28;20028;-36
2022/06/15 00:49:16;;;;;;;6.13;3.95;;;14.20;99.90;;;;;;5078410;28;20110;-39
2022/06/15 00:51:43;;;;;;;4.50;3.30;;;14.10;99.90;;;;;;5074079;28;20040;-39
2022/06/15 00:54:09;;;;;;;6.93;3.47;;;14.10;99.90;;;;;;5072543;28;20485;-39
2022/06/15 00:56:37;;;;;;;4.78;3.47;;;14.00;99.90;;;;;;5076427;28;20102;-35
2022/06/15 00:59:21;;;;;;;4.00;3.33;;;14.00;99.90;;;;;;5078451;28;20051;-38
2022/06/15 01:01:47;;;;;;;6.72;3.80;;;14.00;99.90;;;;;;5072134;27;20640;-36
2022/06/15 01:04:14;;;;;;;6.47;3.45;;;14.00;99.90;;;;;;5088502;28;20043;-39
2022/06/15 01:07:02;;;;;;;6.95;3.38;;;14.00;99.90;;;;;;5078276;28;20749;-38
2022/06/15 01:09:31;;;;;;;4.68;3.42;;;13.90;99.90;;;;;;5076042;28;20036;-35
2022/06/15 01:12:06;;;;;;;6.53;3.92;;;13.80;99.90;;;;;;5074351;28;20084;-36
2022/06/15 01:14:55;;;;;;;4.35;3.25;;;13.80;99.90;;;;;;5076865;28;20028;-38
2022/06/15 01:17:40;;;;;;;4.65;3.50;;;13.70;99.90;;;;;;5080037;28;20261;-39
2022/06/15 01:20:31;;;;;;;5.30;4.10;;;13.70;99.90;;;;;;5082203;28;20035;-36
2022/06/15 01:23:34;;;;;;;4.30;3.25;;;13.70;99.90;;;;;;5073493;28;20469;-37
2022/06/15 01:26:09;;;;;;;4.85;3.70;;;13.60;99.90;;;;;;5074034;28;20050;-39
2022/06/15 01:28:50;;;;;;;3.65;3.13;;;13.50;99.90;;;;;;5079085;28;20060;-37
2022/06/15 01:31:34;;;;;;;3.33;3.00;;;13.40;99.90;;;;;;5072223;28;20042;-39
2022/06/15 01:34:15;;;;;;;3.55;3.25;;;13.40;99.90;;;;;;5075693;28;20029;-37
2022/06/15 01:37:02;;;;;;;4.75;3.65;;;13.20;99.90;;;;;;5074076;28;20489;-37
2022/06/15 01:39:40;;;;;;;3.75;3.05;;;13.10;99.90;;;;;;5082867;28;20093;-39
2022/06/15 01:42:30;;;;;;;7.82;3.33;;;13.10;99.90;;;;;;5077253;28;20077;-36
2022/06/15 01:45:09;;;;;;;6.03;3.58;;;13.20;99.90;;;;;;5073228;28;20024;-36
2022/06/15 01:47:37;;;;;;;6.00;3.67;;;13.20;99.90;;;;;;5076486;28;20043;-36
2022/06/15 01:50:09;;;;;;;4.97;3.55;;;13.30;99.90;;;;;;5072205;28;20047;-37
2022/06/15 01:52:49;;;;;;;4.78;3.72;;;13.30;99.90;;;;;;5078813;28;20028;-38
2022/06/15 01:55:27;;;;;;;5.28;3.58;;;13.40;99.90;;;;;;5083934;28;20455;-37
2022/06/15 01:57:56;;;;;;;4.95;3.08;;;13.30;99.90;;;;;;5068039;28;20124;-38
2022/06/15 02:00:22;;;;;;;4.13;3.35;;;13.30;99.90;;;;;;5075798;28;20060;-37
2022/06/15 02:03:07;;;;;;;3.63;3.33;;;13.20;99.90;;;;;;5075544;28;20139;-40
2022/06/15 02:05:59;;;;;;;3.45;3.03;;;13.20;99.90;;;;;;5070560;28;20032;-40
2022/06/15 02:09:02;;;;;;;4.20;3.58;;;13.20;99.90;;;;;;5069183;28;20040;-37
2022/06/15 02:11:35;;;;;;;3.72;3.20;;;13.20;99.90;;;;;;5071860;28;20091;-38
2022/06/15 02:14:15;;;;;;;3.42;2.50;;;13.10;99.90;;;;;;5087988;28;20020;-37
2022/06/15 02:17:01;;;;;;;4.18;2.30;;;13.10;99.90;;;;;;5069551;28;20115;-39
2022/06/15 02:19:34;;;;;;;4.07;2.78;;;13.10;99.90;;;;;;5074711;28;20313;-39
2022/06/15 02:22:09;;;;;;;3.13;2.65;;;13.10;99.90;;;;;;5087250;28;20530;-39
2022/06/15 02:24:38;;;;;;;3.35;2.60;;;13.00;99.90;;;;;;5080197;28;20978;-39
2022/06/15 02:27:05;;;;;;;;;;;13.00;99.90;;;;;;5079576;28;20028;-39
2022/06/15 02:29:34;;;;;;;4.27;3.37;;;12.90;99.90;;;;;;5077508;28;20571;-36
2022/06/15 02:32:00;;;;;;;4.03;3.30;;;12.80;99.90;;;;;;5080652;27;20128;-39
2022/06/15 02:34:26;;;;;;;3.03;2.50;;;12.70;99.90;;;;;;5076657;28;20031;-36
2022/06/15 02:36:53;;;;;;;3.45;2.03;;;12.50;99.90;;;;;;5077647;28;20047;-39
2022/06/15 02:39:19;;;;;;;3.88;2.60;;;12.30;99.90;;;;;;5076922;28;20100;-37
2022/06/15 02:41:44;;;;;;;5.40;3.42;;;12.20;99.90;;;;;;5080210;28;20124;-37
2022/06/15 02:44:16;;;;;;;4.90;3.60;;;12.40;99.90;;;;;;5084760;28;20049;-39
2022/06/15 02:46:46;;;;;;;5.82;3.45;;;12.30;99.90;;;;;;5077846;28;20024;-39
2022/06/15 02:49:13;;;;;;;6.80;3.22;;;12.30;99.90;;;;;;5077307;28;20036;-36
2022/06/15 02:51:49;;;;;;;5.05;3.55;;;12.30;99.90;;;;;;5083639;28;20075;-38
2022/06/15 02:54:32;;;;;;;3.28;2.75;;;12.30;99.90;;;;;;5087969;28;20032;-38
2022/06/15 02:56:58;;;;;;;3.58;3.00;;;12.20;99.90;;;;;;5088505;28;20051;-39
2022/06/15 02:59:23;;;;;;;3.22;2.92;;;12.10;99.90;;;;;;5080954;28;21739;-38
2022/06/15 03:01:49;;;;;;;4.88;3.35;;;11.90;99.90;;;;;;5072898;27;20094;-39
2022/06/15 03:04:15;;;;;;;5.45;3.33;;;11.90;99.90;;;;;;5074478;28;20571;-37
2022/06/15 03:06:40;;;;;;;5.10;3.35;;;12.10;99.90;;;;;;5078444;28;20029;-37
2022/06/15 03:09:06;;;;;;;5.10;3.17;;;12.10;99.90;;;;;;5077769;28;20592;-38
2022/06/15 03:11:32;;;;;;;4.75;3.60;;;12.10;99.90;;;;;;5085015;28;20051;-40
2022/06/15 03:13:58;;;;;;;5.47;4.05;;;12.10;99.90;;;;;;5085273;28;20434;-37
2022/06/15 03:16:24;;;;;;;5.45;3.47;;;12.10;99.90;;;;;;5080377;28;20062;-39
2022/06/15 03:18:49;;;;;;;5.43;4.00;;;12.10;99.90;;;;;;5072289;28;20028;-39
2022/06/15 03:21:15;;;;;;;7.15;3.97;;;12.10;99.90;;;;;;5069186;28;20025;-36
2022/06/15 03:23:41;;;;;;;5.97;4.47;;;12.10;99.90;;;;;;5070137;28;20613;-39
2022/06/15 03:26:07;;;;;;;6.68;4.07;;;12.20;99.90;;;;;;5074758;28;20546;-38
2022/06/15 03:28:34;;;;;;;9.40;4.28;;;12.20;99.90;;;;;;5079131;28;20077;-39
2022/06/15 03:31:00;;;;;;;5.80;4.15;;;12.20;99.90;;;;;;5071596;27;20127;-39
2022/06/15 03:33:26;;;;;;;5.78;4.03;;;12.20;99.90;;;;;;5076100;28;20043;-39
2022/06/15 03:35:51;;;;;;;8.40;4.32;;;12.30;99.90;;;;;;5075147;28;20032;-37
2022/06/15 03:38:17;;;;;;;4.65;3.53;;;12.30;99.90;;;;;;5075710;28;20040;-36
2022/06/15 03:40:46;;;;;;;4.47;3.30;;;12.30;99.90;;;;;;5066477;28;20054;-39
2022/06/15 03:43:13;;;;;;;5.47;3.63;;;12.10;99.90;;;;;;5076853;28;20095;-38
2022/06/15 03:45:42;;;;;;;4.85;3.70;;;11.90;99.90;;;;;;5079478;28;20085;-40
2022/06/15 03:48:07;;;;;;;10.65;4.45;;;11.80;99.90;;;;;;5069260;28;20488;-36
2022/06/15 03:50:33;;;;;;;7.38;4.40;;;11.70;99.90;;;;;;5075088;28;20020;-39
2022/06/15 03:53:00;;;;;;;6.20;4.28;;;11.70;99.90;;;;;;5070431;28;20031;-39
2022/06/15 03:55:28;;;;;;;7.90;4.43;;;11.90;99.90;;;;;;5073875;28;20051;-38
2022/06/15 03:57:54;;;;;;;6.68;4.28;;;11.90;99.90;;;;;;5069301;28;20024;-37
2022/06/15 04:00:21;;;;;;;5.43;4.20;;;12.00;99.90;;;;;;5068293;28;20186;-39
2022/06/15 04:02:47;;;;;;;13.10;4.38;;;12.00;99.90;;;;;;5070389;27;20040;-39
2022/06/15 04:05:18;;;;;;;5.28;3.92;;;12.00;99.90;;;;;;5070056;28;20500;-38
2022/06/15 04:10:28;;;;;;;6.75;3.97;;;12.20;99.90;;;;;;5067013;28;20877;-36
2022/06/15 04:12:54;;;;;;;5.20;3.83;;;12.40;99.90;;;;;;5077186;28;20032;-39
2022/06/15 04:15:19;;;;;;;6.50;4.43;;;12.50;99.90;;;;;;5074083;28;20034;-37
2022/06/15 04:17:45;;;;;;;5.22;4.10;;;12.40;99.90;;;;;;5073692;28;20031;-37
2022/06/15 04:20:32;;;;;;;5.15;3.42;;;12.50;99.90;;;;;;5067213;28;20758;-36
2022/06/15 04:23:04;;;;;;;3.95;3.53;;;12.40;99.90;;;;;;5072776;28;20117;-39
2022/06/15 04:25:32;;;;;;;4.35;3.90;;;12.50;99.90;;;;;;5075795;28;20033;-37
2022/06/15 04:27:58;;;;;;;7.78;4.18;;;12.70;99.90;;;;;;5076794;28;20033;-37
2022/06/15 04:30:24;;;;;;;4.00;3.60;;;12.90;99.90;;;;;;5075324;28;20035;-39
2022/06/15 04:32:51;;;;;;;7.00;4.63;;;13.10;99.90;;;;;;5068635;28;20029;-39
2022/06/15 04:35:17;;;;;;;5.53;3.90;;;13.20;99.90;;;;;;5072332;28;20240;-39
2022/06/15 04:37:43;;;;;;;5.60;4.05;;;13.30;99.90;;;;;;5070854;28;20481;-39
2022/06/15 04:40:10;;;;;;;5.60;4.00;;;13.30;99.90;;;;;;5077618;28;20146;-38
2022/06/15 04:42:36;;;;;;;4.95;4.15;;;13.40;99.90;;;;;;5074331;28;20729;-38
2022/06/15 04:45:03;;;;;;;4.65;4.13;;;13.60;99.90;;;;;;5076608;28;20031;-39
2022/06/15 04:47:28;;;;;;;4.93;4.28;;;13.70;99.90;;;;;;5073531;28;20032;-39
2022/06/15 04:49:54;;;;;;;7.07;4.43;;;13.70;99.90;;;;;;5067328;28;20389;-38
2022/06/15 04:52:19;;;;;;;7.63;4.68;;;13.70;99.90;;;;;;5072639;28;20043;-39
2022/06/15 04:54:45;;;;;;;5.80;4.35;;;13.60;99.90;;;;;;5069468;28;20033;-39
2022/06/15 04:57:11;;;;;;;6.82;4.53;;;13.50;99.90;;;;;;5075996;28;20111;-38
2022/06/15 04:59:36;;;;;;;8.55;4.78;;;13.50;99.90;;;;;;5068787;28;20039;-38
2022/06/15 05:02:02;;;;;;;8.82;4.95;;;13.50;99.90;;;;;;5067120;27;20511;-39
2022/06/15 05:04:28;;;;;;;5.82;4.97;;;13.60;99.90;;;;;;5072712;28;20422;-36
2022/06/15 05:06:53;;;;;;;8.27;5.18;;;13.60;99.90;;;;;;5075857;28;20473;-39
2022/06/15 05:09:19;;;;;;;10.80;6.18;;;13.70;99.90;;;;;;5073341;28;20048;-38
2022/06/15 05:11:45;;;;;;;9.02;5.32;;;13.70;99.90;;;;;;5071803;28;20039;-40
2022/06/15 05:14:11;;;;;;;8.88;5.63;;;13.80;99.90;;;;;;5070017;28;20126;-39
2022/06/15 05:16:38;;;;;;;8.77;5.25;;;13.90;99.90;;;;;;5066734;28;20031;-39
2022/06/15 05:19:03;;;;;;;7.78;5.10;;;14.10;99.90;;;;;;5074256;28;20918;-38
2022/06/15 05:21:30;;;;;;;5.22;4.53;;;14.40;99.90;;;;;;5064326;28;20047;-37
2022/06/15 05:23:55;;;;;;;6.03;4.80;;;14.80;99.90;;;;;;5074078;28;20020;-36
2022/06/15 05:26:24;;;;;;;8.63;5.45;;;15.10;99.90;;;;;;5073205;28;20073;-38
2022/06/15 05:28:51;;;;;;;8.00;5.15;;;15.30;99.90;;;;;;5070550;28;20037;-38
2022/06/15 05:31:21;;;;;;;8.52;5.68;;;15.60;99.90;;;;;;5074000;28;20090;-39
2022/06/15 05:33:53;;;;;;;8.00;4.35;;;15.70;99.90;;;;;;5068389;28;20538;-39
2022/06/15 05:36:19;;;;;;;9.60;5.93;;;16.00;99.90;;;;;;5076270;28;20511;-38
2022/06/15 05:38:45;;;;;;;5.97;4.70;;;16.10;99.90;;;;;;5076915;28;20521;-38
2022/06/15 05:41:11;;;;;;;6.65;4.97;;;16.30;99.90;;;;;;5081008;28;20065;-39
2022/06/15 05:43:53;;;;;;;7.35;4.82;;;16.40;99.90;;;;;;5081721;28;20017;-39
2022/06/15 05:46:23;;;;;;;8.82;5.10;;;16.50;99.90;;;;;;5081753;28;20058;-37
2022/06/15 05:48:49;;;;;;;9.77;5.32;;;16.80;99.90;;;;;;5073679;28;20035;-39
2022/06/15 05:51:15;;;;;;;7.43;4.50;;;16.90;99.90;;;;;;5082051;28;20032;-39
2022/06/15 05:53:40;;;;;;;10.60;4.95;;;17.10;99.90;;;;;;5077563;28;20062;-38
2022/06/15 05:56:06;;;;;;;6.82;4.97;;;17.30;99.90;;;;;;5077756;28;20409;-37
2022/06/15 05:58:32;;;;;;;7.65;5.13;;;17.30;99.90;;;;;;5085682;28;20446;-39
2022/06/15 06:01:05;;;;;;;8.88;5.45;;;17.40;99.90;;;;;;5077801;27;20024;-38
2022/06/15 06:03:31;;;;;;;7.20;4.93;;;17.50;99.90;;;;;;5084838;28;20032;-37
2022/06/15 06:05:56;;;;;;;7.10;4.95;;;17.50;99.90;;;;;;5085750;28;20027;-39
2022/06/15 06:08:22;;;;;;;6.28;5.05;;;17.50;99.90;;;;;;5085906;28;20032;-39
2022/06/15 06:10:48;;;;;;;7.03;5.15;;;17.70;99.90;;;;;;5085508;28;20455;-36
2022/06/15 06:13:13;;;;;;;9.50;4.90;;;17.80;99.90;;;;;;5087004;28;20192;-39
2022/06/15 06:15:39;;;;;;;8.15;4.88;;;17.80;98.40;;;;;;5086585;28;20024;-37
2022/06/15 06:18:04;;;;;;;6.38;4.07;;;17.90;98.30;;;;;;5078452;28;20059;-37
2022/06/15 06:20:30;;;;;;;7.13;4.75;;;18.00;96.70;;;;;;5085559;28;20089;-39
2022/06/15 06:22:56;;;;;;;4.90;4.22;;;18.10;97.40;;;;;;5089138;28;20020;-37
2022/06/15 06:25:21;;;;;;;7.70;3.85;;;18.10;95.50;;;;;;5076796;28;20035;-39
2022/06/15 06:27:47;;;;;;;4.07;3.55;;;18.20;93.40;;;;;;5087516;28;20534;-39
2022/06/15 06:30:14;;;;;;;5.68;3.83;;;18.30;93.80;;;;;;5080728;28;20020;-39
2022/06/15 06:32:39;;;;;;;7.22;4.38;;;18.50;94.10;;;;;;5074577;28;21583;-38
2022/06/15 06:35:07;;;;;;;6.13;3.90;;;18.70;96.30;;;;;;5079255;28;20032;-39
2022/06/15 06:37:35;;;;;;;8.07;4.40;;;18.80;93.90;;;;;;5078877;28;20026;-39
2022/06/15 06:40:01;;;;;;;5.28;3.80;;;18.90;95.50;;;;;;5086239;28;20127;-39
2022/06/15 06:42:26;;;;;;;6.93;4.25;;;18.90;92.30;;;;;;5086601;28;20024;-39
2022/06/15 06:44:52;;;;;;;7.15;4.05;;;19.00;90.60;;;;;;5081595;28;20026;-36
2022/06/15 06:47:17;;;;;;;7.50;4.15;;;19.10;90.40;;;;;;5071221;28;20493;-39
2022/06/15 06:49:43;;;;;;;4.68;4.18;;;19.20;93.00;;;;;;5085087;28;20431;-39
2022/06/15 06:52:09;;;;;;;5.20;4.10;;;19.30;90.60;;;;;;5071947;28;20032;-38
2022/06/15 06:54:35;;;;;;;5.28;4.00;;;19.40;91.40;;;;;;5080338;28;20035;-39
2022/06/15 06:57:00;;;;;;;5.63;4.05;;;19.50;90.00;;;;;;5070256;28;20420;-37
2022/06/15 06:59:26;;;;;;;5.45;3.53;;;19.70;85.30;;;;;;5075854;28;20167;-39
2022/06/15 07:01:52;;;;;;;4.97;3.38;;;19.80;84.10;;;;;;5077874;28;20057;-38
2022/06/15 07:04:18;;;;;;;7.28;3.72;;;19.90;81.10;;;;;;5081019;28;20150;-39
2022/06/15 07:06:45;;;;;;;3.97;3.58;;;20.10;82.90;;;;;;5076326;28;20236;-37
2022/06/15 07:09:12;;;;;;;5.47;3.22;;;20.20;81.50;;;;;;5080058;28;20370;-37
2022/06/15 07:11:37;;;;;;;4.00;2.97;;;20.30;79.70;;;;;;5079526;28;20032;-39
2022/06/15 07:14:05;;;;;;;4.45;3.35;;;20.60;80.60;;;;;;5074054;28;20149;-39
2022/06/15 07:16:31;;;;;;;5.57;3.28;;;20.80;76.50;;;;;;5073755;28;20027;-38
2022/06/15 07:18:56;;;;;;;4.88;3.45;;;20.90;79.20;;;;;;5083336;28;20484;-36
2022/06/15 07:21:25;;;;;;;5.38;3.80;;;20.90;74.60;;;;;;5069774;28;20020;-37
2022/06/15 07:23:55;;;;;;;5.30;2.85;;;20.90;71.70;;;;;;5082850;28;20504;-39
2022/06/15 07:26:26;;;;;;;7.10;3.30;;;21.20;74.20;;;;;;5081143;28;21548;-39
2022/06/15 07:28:51;;;;;;;3.80;3.03;;;21.30;72.30;;;;;;5080345;28;20028;-39
2022/06/15 07:31:28;;;;;;;4.35;3.00;;;21.70;77.90;;;;;;5081211;28;20395;-38
2022/06/15 07:33:55;;;;;;;4.10;3.15;;;22.00;69.60;;;;;;5082154;28;20115;-39
2022/06/15 07:36:23;;;;;;;4.10;3.10;;;21.90;70.00;;;;;;5078970;28;20027;-35
2022/06/15 07:38:50;;;;;;;3.25;2.95;;;21.80;66.10;;;;;;5105906;27;20028;-36
2022/06/15 07:41:15;;;;;;;4.22;3.17;;;21.60;67.10;;;;;;5072223;28;20036;-40
2022/06/15 07:43:41;;;;;;;5.05;2.97;;;21.90;70.60;;;;;;5078628;28;20099;-38
2022/06/15 07:46:08;;;;;;;4.38;3.20;;;21.90;68.90;;;;;;5075963;28;20070;-37
2022/06/15 07:51:30;;;;;;;3.78;3.33;;;22.20;70.50;;;;;;5072043;28;20047;-39
2022/06/15 07:53:57;;;;;;;7.35;4.18;;;22.20;71.20;;;;;;5080894;28;20027;-39
2022/06/15 07:56:23;;;;;;;5.65;3.10;;;22.30;68.70;;;;;;5078038;28;20105;-39
2022/06/15 07:58:49;;;;;;;5.97;3.67;;;22.50;69.40;;;;;;5075678;28;20044;-38
2022/06/15 08:01:15;;;;;;;5.00;3.33;;;22.60;69.40;;;;;;5078975;27;20047;-37
2022/06/15 08:03:40;;;;;;;4.75;3.47;;;22.60;68.70;;;;;;5074797;28;20067;-37
2022/06/15 08:06:06;;;;;;;5.72;3.28;;;22.60;72.30;;;;;;5081523;28;20024;-38
2022/06/15 08:08:32;;;;;;;5.03;4.00;;;22.70;70.40;;;;;;5083100;28;20658;-36
2022/06/15 08:10:58;;;;;;;6.60;3.35;;;22.70;69.30;;;;;;5073739;28;20043;-39
2022/06/15 08:13:24;;;;;;;6.22;3.90;;;22.80;66.10;;;;;;5077212;28;20036;-39
2022/06/15 08:15:51;;;;;;;3.53;2.92;;;22.80;64.10;;;;;;5076501;28;20032;-39
2022/06/15 08:18:20;;;;;;;3.63;2.90;;;22.80;69.50;;;;;;5076566;28;20028;-39
2022/06/15 08:20:51;;;;;;;3.85;3.30;;;23.30;64.10;;;;;;5085786;28;20016;-39
2022/06/15 08:23:21;;;;;;;4.55;3.00;;;23.60;62.40;;;;;;5081029;28;20027;-39
2022/06/15 08:25:51;;;;;;;4.57;2.70;;;23.80;62.60;;;;;;5082273;28;20107;-39
2022/06/15 08:28:20;;;;;;;3.70;2.67;;;23.70;58.70;;;;;;5071916;28;20016;-38
2022/06/15 08:30:47;;;;;;;2.83;2.63;;;24.00;61.10;;;;;;5067772;27;20036;-38
2022/06/15 08:33:13;;;;;;;2.83;2.60;;;24.20;58.00;;;;;;5082069;28;20024;-39
2022/06/15 08:35:39;;;;;;;5.90;2.83;;;24.70;57.60;;;;;;5077581;28;20028;-39
2022/06/15 08:38:07;;;;;;;5.45;2.72;;;24.80;59.10;;;;;;5075365;28;20028;-39
2022/06/15 08:40:41;;;;;;;3.05;2.85;;;25.10;56.20;;;;;;5071909;28;20036;-37
2022/06/15 08:43:34;;;;;;;3.40;2.78;;;25.00;54.50;;;;;;5076658;28;20020;-39
2022/06/15 08:46:18;;;;;;;3.50;2.78;;;25.20;53.60;;;;;;5076107;28;20031;-38
2022/06/15 08:48:47;;;;;;;3.53;3.22;;;25.00;55.00;;;;;;5079954;28;20036;-38
2022/06/15 08:51:27;;;;;;;6.95;3.22;;;25.10;54.90;;;;;;5073156;28;20032;-36
2022/06/15 08:54:09;;;;;;;4.97;3.22;;;25.20;59.80;;;;;;5078334;28;20047;-37
2022/06/15 08:56:41;;;;;;;3.15;2.50;;;25.40;53.80;;;;;;5079552;28;20416;-39
2022/06/15 08:59:17;;;;;;;4.40;2.85;;;25.10;54.90;;;;;;5082532;28;20046;-39
2022/06/15 09:02:02;;;;;;;3.35;2.80;;;25.10;57.50;;;;;;5085939;27;20036;-35
2022/06/15 09:04:39;;;;;;;3.65;3.10;;;25.40;57.50;;;;;;5088363;28;20546;-36
2022/06/15 09:07:17;;;;;;;4.53;3.33;;;25.90;54.20;;;;;;5083364;28;20849;-36
2022/06/15 09:10:14;;;;;;;3.88;3.00;;;25.40;55.00;;;;;;5081384;28;20032;-38
2022/06/15 09:12:59;;;;;;;6.32;3.22;;;25.40;57.10;;;;;;5086243;28;20041;-39
2022/06/15 09:15:31;;;;;;;5.38;3.42;;;25.90;56.80;;;;;;5076818;28;20037;-36
2022/06/15 09:18:01;;;;;;;4.60;3.25;;;25.90;57.50;;;;;;5087474;28;20039;-37
2022/06/15 09:20:32;;;;;;;3.67;3.20;;;25.70;54.20;;;;;;5088596;28;20052;-39
2022/06/15 09:23:07;;;;;;;5.13;3.22;;;25.70;54.90;;;;;;5085341;28;20032;-39
2022/06/15 09:25:41;;;;;;;3.85;3.13;;;25.60;56.70;;;;;;5082239;28;20516;-39
2022/06/15 09:28:39;;;;;;;6.43;3.08;;;26.10;53.60;;;;;;5084966;28;20024;-39
2022/06/15 09:31:18;;;;;;;3.90;3.45;;;27.00;53.60;;;;;;5078296;27;20047;-38
2022/06/15 09:33:49;;;;;;;3.55;2.53;;;27.30;50.80;;;;;;5077698;28;20023;-35
2022/06/15 09:36:21;;;;;;;3.50;2.70;;;27.50;52.30;;;;;;5080860;28;20038;-37
2022/06/15 09:38:47;;;;;;;3.10;2.67;;;27.50;49.10;;;;;;5073507;28;20023;-39
2022/06/15 09:41:23;;;;;;;3.63;2.88;;;27.00;46.80;;;;;;5084769;28;20366;-39
2022/06/15 09:44:11;;;;;;;6.03;2.88;;;26.90;50.60;;;;;;5081165;28;20100;-38
2022/06/15 09:47:03;;;;;;;3.35;2.67;;;27.20;48.80;;;;;;5085975;28;20024;-37
2022/06/15 09:49:46;;;;;;;8.65;2.90;;;27.60;47.50;;;;;;5076104;28;20044;-38
2022/06/15 09:52:54;;;;;;;3.95;2.70;;;26.70;49.30;;;;;;5076121;28;20031;-39
2022/06/15 09:55:26;;;;;;;3.72;2.75;;;27.00;50.40;;;;;;5080787;28;20052;-37
2022/06/15 09:57:53;;;;;;;3.28;2.80;;;26.60;49.40;;;;;;5082288;28;20030;-39
2022/06/15 10:00:20;;;;;;;6.70;2.72;;;27.20;49.90;;;;;;5082408;28;20039;-38
2022/06/15 10:02:49;;;;;;;3.23;2.87;;;27.60;49.20;;;;;;5073945;28;20040;-36
2022/06/15 10:05:35;;;;;;;5.07;3.42;;;27.60;47.10;;;;;;5086656;28;20046;-40
2022/06/15 10:08:06;;;;;;;4.43;3.07;;;27.50;45.50;;;;;;5078869;28;20493;-39
2022/06/15 10:10:56;;;;;;;3.78;3.00;;;27.80;46.70;;;;;;5085071;28;20026;-38
2022/06/15 10:13:21;;;;;;;5.25;3.03;;;27.70;45.90;;;;;;5085897;28;20119;-39
2022/06/15 10:15:58;;;;;;;3.42;2.88;;;27.40;45.90;;;;;;5072715;28;20029;-40
2022/06/15 10:18:34;;;;;;;4.10;3.35;;;27.60;44.70;;;;;;5084925;28;20040;-39
2022/06/15 10:21:05;;;;;;;3.03;2.75;;;27.90;46.00;;;;;;5080493;28;20172;-39
2022/06/15 10:23:53;;;;;;;2.85;2.65;;;28.00;48.30;;;;;;5087483;28;20098;-37
2022/06/15 10:26:40;;;;;;;3.85;2.92;;;27.80;45.60;;;;;;5085147;28;20169;-38
2022/06/15 10:29:30;;;;;;;5.10;3.30;;;27.60;43.80;;;;;;5084212;28;20114;-40
2022/06/15 10:32:02;;;;;;;5.30;2.92;;;28.00;45.10;;;;;;5072985;27;20578;-37
2022/06/15 10:34:29;;;;;;;4.15;2.63;;;28.20;45.10;;;;;;5075467;28;20040;-40
2022/06/15 10:36:57;;;;;;;4.18;2.80;;;28.10;44.40;;;;;;5076458;28;20028;-39
2022/06/15 10:39:30;;;;;;;3.25;2.95;;;27.50;46.20;;;;;;5081187;28;20038;-39
2022/06/15 10:42:06;;;;;;;4.22;3.05;;;27.20;48.30;;;;;;5075377;28;20115;-39
2022/06/15 10:44:37;;;;;;;5.07;2.70;;;27.60;47.50;;;;;;5071890;28;20143;-37
2022/06/15 10:47:07;;;;;;;4.28;2.72;;;27.40;46.80;;;;;;5076801;28;20033;-40
2022/06/15 10:49:43;;;;;;;3.35;2.78;;;27.30;45.90;;;;;;5076171;28;20046;-39
2022/06/15 10:52:47;;;;;;;3.40;2.80;;;27.60;46.00;;;;;;5078722;28;20564;-39
2022/06/15 11:04:23;;;;;;;3.00;2.80;;;27.30;46.90;;;;;;5080058;28;20031;-39
2022/06/15 11:06:50;;;;;;;3.47;2.83;;;27.10;49.50;;;;;;5084744;28;20032;-38
2022/06/15 11:09:22;;;;;;;4.07;3.10;;;27.50;47.70;;;;;;5088597;28;20031;-40
2022/06/15 11:11:50;;;;;;;4.45;3.28;;;27.40;51.30;;;;;;5076253;28;20032;-39
2022/06/15 11:14:25;;;;;;;3.30;3.00;;;27.40;48.60;;;;;;5080597;28;20039;-36
2022/06/15 11:19:56;;;;;;;3.10;2.42;;;27.10;48.60;;;;;;5083207;28;20394;-40
2022/06/15 11:22:23;;;;;;;3.42;2.53;;;27.00;49.40;;;;;;5081999;28;20019;-37
2022/06/15 11:24:59;;;;;;;3.53;3.10;;;27.10;46.80;;;;;;5081621;28;20040;-39
2022/06/15 11:27:41;;;;;;;2.72;2.50;;;26.70;45.30;;;;;;5081207;28;20024;-37
2022/06/15 11:30:22;;;;;;;8.63;3.55;;;26.80;47.30;;;;;;5081966;28;20177;-36
2022/06/15 11:32:57;;;;;;;2.85;2.65;;;27.10;45.00;;;;;;5076672;28;20114;-36
2022/06/15 11:35:33;;;;;;;3.35;3.05;;;27.30;45.40;;;;;;5075708;28;20028;-37
2022/06/15 11:38:10;;;;;;;4.32;2.63;;;27.40;46.50;;;;;;5079157;28;20105;-38
2022/06/15 11:40:49;;;;;;;3.90;2.55;;;27.30;44.40;;;;;;5079510;28;20052;-39
2022/06/15 11:43:30;;;;;;;2.55;2.35;;;27.20;43.70;;;;;;5070162;28;20016;-38
2022/06/15 11:46:11;;;;;;;2.90;2.70;;;27.20;46.00;;;;;;5080551;28;20417;-38
2022/06/15 11:48:43;;;;;;;4.07;2.58;;;26.90;42.50;;;;;;5077454;28;20032;-40
2022/06/15 11:51:40;;;;;;;3.45;2.33;;;26.80;43.80;;;;;;5083937;28;20626;-36
2022/06/15 11:54:11;;;;;;;3.00;2.45;;;26.80;44.40;;;;;;5072373;28;20107;-39
2022/06/15 11:56:57;;;;;;;2.72;2.30;;;27.00;45.70;;;;;;5071944;28;20036;-39
2022/06/15 11:59:34;;;;;;;2.88;2.40;;;27.10;45.20;;;;;;5086560;28;20405;-38
2022/06/15 12:02:37;;;;;;;4.03;2.97;;;26.90;41.70;;;;;;5078260;27;20158;-37
2022/06/15 12:05:16;;;;;;;4.22;2.78;;;26.90;45.10;;;;;;5070166;28;20058;-39
2022/06/15 12:07:49;;;;;;;2.80;2.60;;;27.00;43.40;;;;;;5085240;28;20032;-38
2022/06/15 12:10:29;;;;;;;3.50;2.58;;;27.00;45.80;;;;;;5082865;28;20027;-37
2022/06/15 12:13:07;;;;;;;2.60;2.35;;;27.20;46.50;;;;;;5087256;28;20444;-39
2022/06/15 12:15:55;;;;;;;3.58;2.45;;;27.20;45.00;;;;;;5077213;28;20038;-39
2022/06/15 12:19:05;;;;;;;2.97;2.33;;;27.40;45.60;;;;;;5074988;28;20032;-39
2022/06/15 12:21:40;;;;;;;4.88;2.45;;;27.50;44.30;;;;;;5048314;28;20055;-38
2022/06/15 12:24:20;;;;;;;3.17;2.30;;;27.20;40.10;;;;;;5077848;28;20047;-39
2022/06/15 12:27:01;;;;;;;2.53;2.30;;;27.20;44.10;;;;;;5082442;28;20234;-40
2022/06/15 12:29:58;;;;;;;3.80;2.78;;;27.30;42.80;;;;;;5073426;28;20052;-37
2022/06/15 12:32:34;;;;;;;2.70;2.50;;;27.20;42.70;;;;;;5080035;28;20101;-39
2022/06/15 12:35:23;;;;;;;3.28;2.60;;;27.30;42.30;;;;;;5078234;28;20060;-38
2022/06/15 12:38:14;;;;;;;2.50;2.30;;;27.30;42.60;;;;;;5078344;28;20029;-39
2022/06/15 12:40:50;;;;;;;3.53;2.47;;;27.60;43.30;;;;;;5073050;28;20054;-40
2022/06/15 12:43:25;;;;;;;2.45;2.25;;;27.60;43.00;;;;;;5081076;28;20024;-37
2022/06/15 12:45:59;;;;;;;9.77;3.20;;;27.40;40.20;;;;;;5073441;28;20032;-38
2022/06/15 12:48:33;;;;;;;2.75;2.55;;;27.30;43.30;;;;;;5084846;28;20025;-38
2022/06/15 12:51:14;;;;;;;2.45;2.25;;;27.30;40.60;;;;;;5083836;28;20024;-39
2022/06/15 12:54:06;;;;;;;3.10;2.55;;;27.50;42.00;;;;;;5084895;28;20032;-40
2022/06/15 12:56:45;;;;;;;2.80;2.60;;;27.70;41.70;;;;;;5070738;28;20047;-36
2022/06/15 12:59:41;;;;;;;3.80;2.60;;;27.70;43.10;;;;;;5074174;28;20151;-40
2022/06/15 13:02:34;;;;;;;3.22;2.67;;;27.60;39.90;;;;;;5078358;28;20519;-38
2022/06/15 13:05:14;;;;;;;2.63;2.33;;;27.60;40.70;;;;;;5074273;28;20056;-40
2022/06/15 13:07:41;;;;;;;2.45;2.20;;;27.60;40.00;;;;;;5081061;28;20032;-39
2022/06/15 13:10:07;;;;;;;3.08;2.17;;;27.70;41.10;;;;;;5088840;28;20039;-40
2022/06/15 13:12:41;;;;;;;2.90;2.40;;;27.70;41.10;;;;;;5084102;28;20031;-40
2022/06/15 13:15:23;;;;;;;2.67;2.47;;;27.80;42.00;;;;;;5084323;28;20516;-37
2022/06/15 13:18:09;;;;;;;3.08;2.60;;;27.90;40.80;;;;;;5073336;28;20023;-39
2022/06/15 13:21:01;;;;;;;3.03;2.50;;;27.70;39.20;;;;;;5081974;28;20055;-39
2022/06/15 13:23:32;;;;;;;2.38;2.17;;;27.70;43.10;;;;;;5079931;28;20027;-39
2022/06/15 13:26:20;;;;;;;2.60;2.40;;;27.80;40.40;;;;;;5084471;28;20020;-40
2022/06/15 13:29:01;;;;;;;2.65;2.25;;;27.90;41.00;;;;;;5085977;28;20442;-40
2022/06/15 13:31:47;;;;;;;2.65;2.45;;;27.80;39.90;;;;;;5079223;27;20028;-39
2022/06/15 13:34:29;;;;;;;2.50;2.30;;;27.70;39.50;;;;;;5077783;28;20035;-40